sensor_id;sensor_type;location;lat;lon;timestamp;P1;durP1;ratioP1;P2;durP2;ratioP2
22308;SDS011;11322;50.858;-1.778;2024-01-30T00:00:33;4.8;;;1.4;;
22308;SDS011;11322;50.858;-1.778;2024-01-30T00:05:33;1.8;;;0.4;;
22308;SDS011;11322;50.858;-1.778;2024-01-30T00:10:33;2.55;;;0.4;;
22308;SDS011;11322;50.858;-1.778;2024-01-30T00:15:33;11.6;;;1.3;;
22308;SDS011;11322;50.858;-1.778;2024-01-30T00:20:33;7.9;;;0.6;;
22308;SDS011;11322;50.858;-1.778;2024-01-30T00:25:33;0.6;;;0.25;;
22308;SDS011;11322;50.858;-1.778;2024-01-30T00:30:33;0.7;;;0.7;;
22308;SDS011;11322;50.858;-1.778;2024-01-30T00:35:33;2.3;;;0.55;;
22308;SDS011;11322;50.858;-1.778;2024-01-30T00:40:33;1.1;;;0.45;;
22308;SDS011;11322;50.858;-1.778;2024-01-30T00:45:33;6.4;;;1.1;;
22308;SDS011;11322;50.858;-1.778;2024-01-30T00:50:33;5.35;;;0.5;;
22308;SDS011;11322;50.858;-1.778;2024-01-30T00:55:33;3.6;;;1.1;;
22308;SDS011;11322;50.858;-1.778;2024-01-30T01:00:33;2.65;;;0.35;;
22308;SDS011;11322;50.858;-1.778;2024-01-30T01:05:33;8.05;;;1.2;;
22308;SDS011;11322;50.858;-1.778;2024-01-30T01:10:33;5.55;;;1.05;;
22308;SDS011;11322;50.858;-1.778;2024-01-30T01:15:33;8.15;;;0.8;;
22308;SDS011;11322;50.858;-1.778;2024-01-30T01:20:33;2.7;;;0.65;;
22308;SDS011;11322;50.858;-1.778;2024-01-30T01:25:33;4.6;;;0.95;;
22308;SDS011;11322;50.858;-1.778;2024-01-30T01:30:33;1.95;;;0.8;;
22308;SDS011;11322;50.858;-1.778;2024-01-30T01:35:33;8.45;;;1.2;;
22308;SDS011;11322;50.858;-1.778;2024-01-30T01:40:33;4.25;;;0.9;;
22308;SDS011;11322;50.858;-1.778;2024-01-30T01:45:33;3.45;;;0.7;;
22308;SDS011;11322;50.858;-1.778;2024-01-30T01:50:33;2.6;;;0.6;;
22308;SDS011;11322;50.858;-1.778;2024-01-30T01:55:33;6.55;;;1.7;;
22308;SDS011;11322;50.858;-1.778;2024-01-30T02:00:33;5.65;;;1.25;;
22308;SDS011;11322;50.858;-1.778;2024-01-30T02:05:33;3.05;;;0.85;;
22308;SDS011;11322;50.858;-1.778;2024-01-30T02:10:33;4.35;;;0.9;;
22308;SDS011;11322;50.858;-1.778;2024-01-30T02:15:33;10.65;;;2.3;;
22308;SDS011;11322;50.858;-1.778;2024-01-30T02:20:34;1.9;;;0.7;;
22308;SDS011;11322;50.858;-1.778;2024-01-30T02:25:33;9.15;;;1.1;;
22308;SDS011;11322;50.858;-1.778;2024-01-30T02:30:33;2.1;;;0.6;;
22308;SDS011;11322;50.858;-1.778;2024-01-30T02:35:33;4.35;;;0.9;;
22308;SDS011;11322;50.858;-1.778;2024-01-30T02:40:38;1.35;;;0.5;;
22308;SDS011;11322;50.858;-1.778;2024-01-30T02:45:33;1.15;;;0.6;;
22308;SDS011;11322;50.858;-1.778;2024-01-30T02:50:33;1.1;;;0.55;;
22308;SDS011;11322;50.858;-1.778;2024-01-30T02:55:33;0.6;;;0.5;;
22308;SDS011;11322;50.858;-1.778;2024-01-30T03:00:33;1.55;;;0.5;;
22308;SDS011;11322;50.858;-1.778;2024-01-30T03:05:33;0.3;;;0.3;;
22308;SDS011;11322;50.858;-1.778;2024-01-30T03:10:33;0.65;;;0.3;;
22308;SDS011;11322;50.858;-1.778;2024-01-30T03:15:33;0.2;;;0.2;;
22308;SDS011;11322;50.858;-1.778;2024-01-30T03:20:33;4.2;;;0.5;;
22308;SDS011;11322;50.858;-1.778;2024-01-30T03:25:33;1.8;;;0.65;;
22308;SDS011;11322;50.858;-1.778;2024-01-30T03:30:34;2.55;;;0.4;;
22308;SDS011;11322;50.858;-1.778;2024-01-30T03:35:33;0.3;;;0.3;;
22308;SDS011;11322;50.858;-1.778;2024-01-30T03:40:33;1.1;;;0.5;;
22308;SDS011;11322;50.858;-1.778;2024-01-30T03:45:33;0.65;;;0.3;;
22308;SDS011;11322;50.858;-1.778;2024-01-30T03:50:33;1.85;;;0.3;;
22308;SDS011;11322;50.858;-1.778;2024-01-30T03:55:33;1.25;;;0.5;;
22308;SDS011;11322;50.858;-1.778;2024-01-30T04:00:33;2.4;;;0.2;;
22308;SDS011;11322;50.858;-1.778;2024-01-30T04:05:33;3.15;;;0.6;;
22308;SDS011;11322;50.858;-1.778;2024-01-30T04:10:33;1.6;;;0.35;;
22308;SDS011;11322;50.858;-1.778;2024-01-30T04:15:33;1.1;;;0.4;;
22308;SDS011;11322;50.858;-1.778;2024-01-30T04:20:33;0.4;;;0.4;;
22308;SDS011;11322;50.858;-1.778;2024-01-30T04:25:33;1.75;;;0.45;;
22308;SDS011;11322;50.858;-1.778;2024-01-30T04:30:33;2.85;;;0.6;;
22308;SDS011;11322;50.858;-1.778;2024-01-30T04:35:33;2.5;;;0.55;;
22308;SDS011;11322;50.858;-1.778;2024-01-30T04:40:33;0.2;;;0.2;;
22308;SDS011;11322;50.858;-1.778;2024-01-30T04:45:33;0.85;;;0.3;;
22308;SDS011;11322;50.858;-1.778;2024-01-30T04:50:33;1.3;;;0.35;;
22308;SDS011;11322;50.858;-1.778;2024-01-30T04:55:34;2.85;;;0.6;;
22308;SDS011;11322;50.858;-1.778;2024-01-30T05:00:33;0.55;;;0.45;;
22308;SDS011;11322;50.858;-1.778;2024-01-30T05:05:33;1.25;;;0.25;;
22308;SDS011;11322;50.858;-1.778;2024-01-30T05:10:33;0.25;;;0.25;;
22308;SDS011;11322;50.858;-1.778;2024-01-30T05:15:33;1.45;;;0.75;;
22308;SDS011;11322;50.858;-1.778;2024-01-30T05:20:33;6.1;;;1.0;;
22308;SDS011;11322;50.858;-1.778;2024-01-30T05:25:33;2.95;;;0.55;;
22308;SDS011;11322;50.858;-1.778;2024-01-30T05:30:33;2.8;;;0.45;;
22308;SDS011;11322;50.858;-1.778;2024-01-30T05:35:33;3.55;;;0.65;;
22308;SDS011;11322;50.858;-1.778;2024-01-30T05:40:33;0.85;;;0.8;;
22308;SDS011;11322;50.858;-1.778;2024-01-30T05:45:33;1.4;;;0.5;;
22308;SDS011;11322;50.858;-1.778;2024-01-30T05:50:33;5.85;;;0.6;;
22308;SDS011;11322;50.858;-1.778;2024-01-30T05:55:33;8.4;;;0.9;;
22308;SDS011;11322;50.858;-1.778;2024-01-30T06:00:33;4.85;;;0.6;;
22308;SDS011;11322;50.858;-1.778;2024-01-30T06:05:33;3.4;;;1.1;;
22308;SDS011;11322;50.858;-1.778;2024-01-30T06:10:33;6.55;;;0.5;;
22308;SDS011;11322;50.858;-1.778;2024-01-30T06:15:33;1.45;;;0.55;;
22308;SDS011;11322;50.858;-1.778;2024-01-30T06:20:33;2.3;;;0.55;;
22308;SDS011;11322;50.858;-1.778;2024-01-30T06:25:33;1.15;;;0.65;;
22308;SDS011;11322;50.858;-1.778;2024-01-30T06:30:33;4.65;;;1.0;;
22308;SDS011;11322;50.858;-1.778;2024-01-30T06:35:33;2.0;;;1.1;;
22308;SDS011;11322;50.858;-1.778;2024-01-30T06:40:33;5.4;;;1.65;;
22308;SDS011;11322;50.858;-1.778;2024-01-30T06:45:33;3.6;;;1.3;;
22308;SDS011;11322;50.858;-1.778;2024-01-30T06:50:33;9.05;;;1.3;;
22308;SDS011;11322;50.858;-1.778;2024-01-30T06:55:33;6.0;;;1.4;;
22308;SDS011;11322;50.858;-1.778;2024-01-30T07:00:33;3.5;;;1.0;;
22308;SDS011;11322;50.858;-1.778;2024-01-30T07:05:33;3.5;;;1.1;;
22308;SDS011;11322;50.858;-1.778;2024-01-30T07:10:33;4.1;;;1.6;;
22308;SDS011;11322;50.858;-1.778;2024-01-30T07:15:33;7.35;;;1.9;;
22308;SDS011;11322;50.858;-1.778;2024-01-30T07:20:33;3.55;;;1.3;;
22308;SDS011;11322;50.858;-1.778;2024-01-30T07:25:33;10.65;;;2.7;;
22308;SDS011;11322;50.858;-1.778;2024-01-30T07:30:33;5.7;;;2.1;;
22308;SDS011;11322;50.858;-1.778;2024-01-30T07:35:33;12.6;;;2.65;;
22308;SDS011;11322;50.858;-1.778;2024-01-30T07:40:33;12.45;;;2.65;;
22308;SDS011;11322;50.858;-1.778;2024-01-30T07:45:33;12.1;;;3.2;;
22308;SDS011;11322;50.858;-1.778;2024-01-30T07:50:33;16.95;;;3.65;;
22308;SDS011;11322;50.858;-1.778;2024-01-30T07:55:33;14.35;;;2.5;;
22308;SDS011;11322;50.858;-1.778;2024-01-30T08:00:33;11.8;;;1.8;;
22308;SDS011;11322;50.858;-1.778;2024-01-30T08:05:33;14.75;;;3.1;;
22308;SDS011;11322;50.858;-1.778;2024-01-30T08:10:33;9.8;;;1.75;;
22308;SDS011;11322;50.858;-1.778;2024-01-30T08:15:33;18.9;;;2.95;;
22308;SDS011;11322;50.858;-1.778;2024-01-30T08:20:34;13.7;;;3.05;;
22308;SDS011;11322;50.858;-1.778;2024-01-30T08:25:33;9.85;;;2.5;;
22308;SDS011;11322;50.858;-1.778;2024-01-30T08:30:33;9.3;;;3.05;;
22308;SDS011;11322;50.858;-1.778;2024-01-30T08:35:33;12.05;;;2.9;;
22308;SDS011;11322;50.858;-1.778;2024-01-30T08:40:33;12.85;;;2.85;;
22308;SDS011;11322;50.858;-1.778;2024-01-30T08:45:33;10.75;;;2.7;;
22308;SDS011;11322;50.858;-1.778;2024-01-30T08:50:33;13.25;;;3.35;;
22308;SDS011;11322;50.858;-1.778;2024-01-30T08:55:33;15.0;;;3.45;;
22308;SDS011;11322;50.858;-1.778;2024-01-30T09:00:33;15.25;;;3.0;;
22308;SDS011;11322;50.858;-1.778;2024-01-30T09:05:33;10.9;;;3.2;;
22308;SDS011;11322;50.858;-1.778;2024-01-30T09:10:33;8.0;;;2.65;;
22308;SDS011;11322;50.858;-1.778;2024-01-30T09:15:33;11.75;;;3.35;;
22308;SDS011;11322;50.858;-1.778;2024-01-30T09:20:33;19.15;;;3.05;;
22308;SDS011;11322;50.858;-1.778;2024-01-30T09:25:33;13.35;;;3.05;;
22308;SDS011;11322;50.858;-1.778;2024-01-30T09:30:33;16.85;;;2.65;;
22308;SDS011;11322;50.858;-1.778;2024-01-30T09:35:33;4.65;;;1.85;;
22308;SDS011;11322;50.858;-1.778;2024-01-30T09:40:33;4.45;;;2.45;;
22308;SDS011;11322;50.858;-1.778;2024-01-30T09:45:33;8.5;;;2.95;;
22308;SDS011;11322;50.858;-1.778;2024-01-30T09:50:33;10.7;;;2.4;;
22308;SDS011;11322;50.858;-1.778;2024-01-30T09:55:33;12.1;;;2.35;;
22308;SDS011;11322;50.858;-1.778;2024-01-30T10:00:33;12.75;;;3.3;;
22308;SDS011;11322;50.858;-1.778;2024-01-30T10:05:33;13.85;;;2.6;;
22308;SDS011;11322;50.858;-1.778;2024-01-30T10:10:33;11.0;;;3.15;;
22308;SDS011;11322;50.858;-1.778;2024-01-30T10:15:33;14.5;;;3.2;;
22308;SDS011;11322;50.858;-1.778;2024-01-30T10:20:33;12.05;;;2.75;;
22308;SDS011;11322;50.858;-1.778;2024-01-30T10:25:33;13.1;;;2.9;;
22308;SDS011;11322;50.858;-1.778;2024-01-30T10:30:33;14.2;;;3.1;;
22308;SDS011;11322;50.858;-1.778;2024-01-30T10:35:33;14.25;;;3.85;;
22308;SDS011;11322;50.858;-1.778;2024-01-30T10:40:33;13.25;;;2.4;;
22308;SDS011;11322;50.858;-1.778;2024-01-30T10:45:33;10.1;;;2.65;;
22308;SDS011;11322;50.858;-1.778;2024-01-30T10:50:33;10.4;;;2.9;;
22308;SDS011;11322;50.858;-1.778;2024-01-30T10:55:33;15.1;;;3.25;;
22308;SDS011;11322;50.858;-1.778;2024-01-30T11:00:33;8.45;;;2.4;;
22308;SDS011;11322;50.858;-1.778;2024-01-30T11:05:33;9.75;;;1.85;;
22308;SDS011;11322;50.858;-1.778;2024-01-30T11:10:33;8.85;;;2.75;;
22308;SDS011;11322;50.858;-1.778;2024-01-30T11:10:46;8.85;;;2.75;;
22308;SDS011;11322;50.858;-1.778;2024-01-30T11:15:33;4.15;;;2.5;;
22308;SDS011;11322;50.858;-1.778;2024-01-30T11:20:33;19.9;;;2.25;;
22308;SDS011;11322;50.858;-1.778;2024-01-30T11:25:33;7.6;;;2.6;;
22308;SDS011;11322;50.858;-1.778;2024-01-30T11:30:33;10.6;;;2.85;;
22308;SDS011;11322;50.858;-1.778;2024-01-30T11:35:33;8.5;;;3.1;;
22308;SDS011;11322;50.858;-1.778;2024-01-30T11:40:33;11.8;;;2.9;;
22308;SDS011;11322;50.858;-1.778;2024-01-30T11:45:33;11.7;;;2.35;;
22308;SDS011;11322;50.858;-1.778;2024-01-30T11:50:33;9.75;;;3.15;;
22308;SDS011;11322;50.858;-1.778;2024-01-30T11:55:33;6.9;;;2.15;;
22308;SDS011;11322;50.858;-1.778;2024-01-30T12:00:33;12.3;;;2.75;;
22308;SDS011;11322;50.858;-1.778;2024-01-30T12:05:33;7.6;;;2.45;;
22308;SDS011;11322;50.858;-1.778;2024-01-30T12:11:44;13.3;;;4.3;;
22308;SDS011;11322;50.858;-1.778;2024-01-30T12:15:33;8.0;;;2.6;;
22308;SDS011;11322;50.858;-1.778;2024-01-30T12:20:33;4.75;;;2.2;;
22308;SDS011;11322;50.858;-1.778;2024-01-30T12:25:33;9.15;;;2.0;;
22308;SDS011;11322;50.858;-1.778;2024-01-30T12:30:34;9.7;;;2.85;;
22308;SDS011;11322;50.858;-1.778;2024-01-30T12:35:34;8.65;;;2.25;;
22308;SDS011;11322;50.858;-1.778;2024-01-30T12:40:33;11.4;;;2.45;;
22308;SDS011;11322;50.858;-1.778;2024-01-30T12:45:33;3.45;;;1.85;;
22308;SDS011;11322;50.858;-1.778;2024-01-30T12:50:33;6.8;;;1.5;;
22308;SDS011;11322;50.858;-1.778;2024-01-30T12:55:33;9.85;;;2.45;;
22308;SDS011;11322;50.858;-1.778;2024-01-30T13:00:33;11.05;;;2.8;;
22308;SDS011;11322;50.858;-1.778;2024-01-30T13:05:33;7.05;;;1.8;;
22308;SDS011;11322;50.858;-1.778;2024-01-30T13:10:33;7.05;;;3.2;;
22308;SDS011;11322;50.858;-1.778;2024-01-30T13:15:33;12.35;;;2.45;;
22308;SDS011;11322;50.858;-1.778;2024-01-30T13:20:33;5.6;;;2.15;;
22308;SDS011;11322;50.858;-1.778;2024-01-30T13:25:33;4.25;;;2.1;;
22308;SDS011;11322;50.858;-1.778;2024-01-30T13:30:33;12.65;;;2.6;;
22308;SDS011;11322;50.858;-1.778;2024-01-30T13:35:33;8.6;;;2.45;;
22308;SDS011;11322;50.858;-1.778;2024-01-30T13:40:33;3.45;;;2.05;;
22308;SDS011;11322;50.858;-1.778;2024-01-30T13:45:33;7.95;;;2.1;;
22308;SDS011;11322;50.858;-1.778;2024-01-30T13:50:33;7.0;;;2.05;;
22308;SDS011;11322;50.858;-1.778;2024-01-30T13:55:33;12.3;;;4.4;;
22308;SDS011;11322;50.858;-1.778;2024-01-30T14:00:33;10.25;;;1.95;;
22308;SDS011;11322;50.858;-1.778;2024-01-30T14:05:33;16.9;;;5.7;;
22308;SDS011;11322;50.858;-1.778;2024-01-30T14:10:33;10.7;;;2.0;;
22308;SDS011;11322;50.858;-1.778;2024-01-30T14:15:33;8.1;;;2.1;;
22308;SDS011;11322;50.858;-1.778;2024-01-30T14:20:33;10.2;;;2.9;;
22308;SDS011;11322;50.858;-1.778;2024-01-30T14:25:33;4.75;;;2.2;;
22308;SDS011;11322;50.858;-1.778;2024-01-30T14:30:33;5.25;;;2.0;;
22308;SDS011;11322;50.858;-1.778;2024-01-30T14:35:33;5.55;;;1.55;;
22308;SDS011;11322;50.858;-1.778;2024-01-30T14:40:33;4.55;;;1.85;;
22308;SDS011;11322;50.858;-1.778;2024-01-30T14:45:33;6.3;;;2.5;;
22308;SDS011;11322;50.858;-1.778;2024-01-30T14:50:33;6.4;;;1.55;;
22308;SDS011;11322;50.858;-1.778;2024-01-30T14:55:33;3.4;;;1.6;;
22308;SDS011;11322;50.858;-1.778;2024-01-30T15:00:33;11.25;;;6.25;;
22308;SDS011;11322;50.858;-1.778;2024-01-30T15:05:33;5.55;;;2.05;;
22308;SDS011;11322;50.858;-1.778;2024-01-30T15:10:33;3.3;;;2.1;;
22308;SDS011;11322;50.858;-1.778;2024-01-30T15:15:33;2.15;;;1.5;;
22308;SDS011;11322;50.858;-1.778;2024-01-30T15:20:33;2.75;;;1.55;;
22308;SDS011;11322;50.858;-1.778;2024-01-30T15:25:33;9.75;;;1.4;;
22308;SDS011;11322;50.858;-1.778;2024-01-30T15:30:33;7.55;;;2.85;;
22308;SDS011;11322;50.858;-1.778;2024-01-30T15:35:33;2.5;;;1.7;;
22308;SDS011;11322;50.858;-1.778;2024-01-30T15:40:33;4.05;;;1.4;;
22308;SDS011;11322;50.858;-1.778;2024-01-30T15:45:33;4.65;;;1.7;;
22308;SDS011;11322;50.858;-1.778;2024-01-30T15:50:33;4.75;;;2.3;;
22308;SDS011;11322;50.858;-1.778;2024-01-30T15:55:33;2.4;;;1.5;;
22308;SDS011;11322;50.858;-1.778;2024-01-30T16:00:33;5.8;;;1.4;;
22308;SDS011;11322;50.858;-1.778;2024-01-30T16:05:33;5.55;;;2.1;;
22308;SDS011;11322;50.858;-1.778;2024-01-30T16:10:33;6.1;;;2.5;;
22308;SDS011;11322;50.858;-1.778;2024-01-30T16:15:33;8.1;;;3.0;;
22308;SDS011;11322;50.858;-1.778;2024-01-30T16:20:33;9.1;;;2.8;;
22308;SDS011;11322;50.858;-1.778;2024-01-30T16:25:33;5.45;;;3.2;;
22308;SDS011;11322;50.858;-1.778;2024-01-30T16:30:33;7.05;;;3.1;;
22308;SDS011;11322;50.858;-1.778;2024-01-30T16:35:33;5.7;;;2.55;;
22308;SDS011;11322;50.858;-1.778;2024-01-30T16:40:33;12.0;;;4.3;;
22308;SDS011;11322;50.858;-1.778;2024-01-30T16:45:33;7.25;;;4.15;;
22308;SDS011;11322;50.858;-1.778;2024-01-30T16:50:33;9.75;;;2.85;;
22308;SDS011;11322;50.858;-1.778;2024-01-30T16:55:33;11.8;;;7.4;;
22308;SDS011;11322;50.858;-1.778;2024-01-30T17:00:33;10.15;;;5.8;;
22308;SDS011;11322;50.858;-1.778;2024-01-30T17:05:33;4.05;;;2.8;;
22308;SDS011;11322;50.858;-1.778;2024-01-30T17:10:33;6.0;;;2.65;;
22308;SDS011;11322;50.858;-1.778;2024-01-30T17:15:33;21.15;;;7.3;;
22308;SDS011;11322;50.858;-1.778;2024-01-30T17:20:33;7.6;;;2.75;;
22308;SDS011;11322;50.858;-1.778;2024-01-30T17:25:33;22.85;;;6.3;;
22308;SDS011;11322;50.858;-1.778;2024-01-30T17:30:33;15.45;;;4.2;;
22308;SDS011;11322;50.858;-1.778;2024-01-30T17:35:33;2.65;;;2.3;;
22308;SDS011;11322;50.858;-1.778;2024-01-30T17:40:33;4.3;;;2.65;;
22308;SDS011;11322;50.858;-1.778;2024-01-30T17:45:33;5.2;;;1.7;;
22308;SDS011;11322;50.858;-1.778;2024-01-30T17:50:33;2.45;;;2.1;;
22308;SDS011;11322;50.858;-1.778;2024-01-30T17:55:33;4.7;;;3.1;;
22308;SDS011;11322;50.858;-1.778;2024-01-30T18:00:33;5.15;;;3.75;;
22308;SDS011;11322;50.858;-1.778;2024-01-30T18:05:33;6.3;;;2.8;;
22308;SDS011;11322;50.858;-1.778;2024-01-30T18:10:33;2.8;;;1.8;;
22308;SDS011;11322;50.858;-1.778;2024-01-30T18:15:33;1.4;;;1.25;;
22308;SDS011;11322;50.858;-1.778;2024-01-30T18:20:33;22.85;;;6.2;;
22308;SDS011;11322;50.858;-1.778;2024-01-30T18:25:33;65.15;;;18.7;;
22308;SDS011;11322;50.858;-1.778;2024-01-30T18:30:33;12.05;;;7.3;;
22308;SDS011;11322;50.858;-1.778;2024-01-30T18:35:33;5.3;;;2.6;;
22308;SDS011;11322;50.858;-1.778;2024-01-30T18:40:33;6.1;;;2.7;;
22308;SDS011;11322;50.858;-1.778;2024-01-30T18:45:33;3.55;;;1.35;;
22308;SDS011;11322;50.858;-1.778;2024-01-30T18:50:33;4.4;;;1.35;;
22308;SDS011;11322;50.858;-1.778;2024-01-30T18:55:33;4.6;;;2.05;;
22308;SDS011;11322;50.858;-1.778;2024-01-30T19:00:33;9.4;;;5.35;;
22308;SDS011;11322;50.858;-1.778;2024-01-30T19:05:33;6.8;;;3.6;;
22308;SDS011;11322;50.858;-1.778;2024-01-30T19:10:33;4.15;;;1.2;;
22308;SDS011;11322;50.858;-1.778;2024-01-30T19:15:33;2.9;;;1.95;;
22308;SDS011;11322;50.858;-1.778;2024-01-30T19:20:33;2.95;;;1.7;;
22308;SDS011;11322;50.858;-1.778;2024-01-30T19:25:33;5.9;;;1.55;;
22308;SDS011;11322;50.858;-1.778;2024-01-30T19:30:33;2.65;;;1.4;;
22308;SDS011;11322;50.858;-1.778;2024-01-30T19:35:33;3.15;;;1.3;;
22308;SDS011;11322;50.858;-1.778;2024-01-30T19:40:33;3.15;;;1.35;;
22308;SDS011;11322;50.858;-1.778;2024-01-30T19:45:33;3.4;;;1.95;;
22308;SDS011;11322;50.858;-1.778;2024-01-30T19:50:33;8.35;;;4.4;;
22308;SDS011;11322;50.858;-1.778;2024-01-30T19:55:33;4.3;;;2.3;;
22308;SDS011;11322;50.858;-1.778;2024-01-30T20:00:33;18.05;;;7.25;;
22308;SDS011;11322;50.858;-1.778;2024-01-30T20:05:33;7.75;;;3.45;;
22308;SDS011;11322;50.858;-1.778;2024-01-30T20:10:33;6.5;;;3.15;;
22308;SDS011;11322;50.858;-1.778;2024-01-30T20:15:33;4.45;;;1.7;;
22308;SDS011;11322;50.858;-1.778;2024-01-30T20:20:33;8.0;;;4.35;;
22308;SDS011;11322;50.858;-1.778;2024-01-30T20:25:33;10.8;;;5.35;;
22308;SDS011;11322;50.858;-1.778;2024-01-30T20:30:34;14.0;;;4.95;;
22308;SDS011;11322;50.858;-1.778;2024-01-30T20:35:33;11.8;;;4.85;;
22308;SDS011;11322;50.858;-1.778;2024-01-30T20:40:33;13.35;;;7.15;;
22308;SDS011;11322;50.858;-1.778;2024-01-30T20:45:33;27.05;;;12.0;;
22308;SDS011;11322;50.858;-1.778;2024-01-30T20:50:33;24.2;;;10.65;;
22308;SDS011;11322;50.858;-1.778;2024-01-30T20:55:33;12.45;;;6.7;;
22308;SDS011;11322;50.858;-1.778;2024-01-30T21:00:33;12.15;;;6.25;;
22308;SDS011;11322;50.858;-1.778;2024-01-30T21:05:33;16.4;;;6.6;;
22308;SDS011;11322;50.858;-1.778;2024-01-30T21:10:33;13.35;;;6.45;;
22308;SDS011;11322;50.858;-1.778;2024-01-30T21:15:33;7.8;;;3.9;;
22308;SDS011;11322;50.858;-1.778;2024-01-30T21:20:33;5.1;;;3.3;;
22308;SDS011;11322;50.858;-1.778;2024-01-30T21:25:33;12.0;;;5.2;;
22308;SDS011;11322;50.858;-1.778;2024-01-30T21:30:33;9.6;;;4.35;;
22308;SDS011;11322;50.858;-1.778;2024-01-30T21:35:33;11.1;;;6.75;;
22308;SDS011;11322;50.858;-1.778;2024-01-30T21:40:33;14.0;;;6.45;;
22308;SDS011;11322;50.858;-1.778;2024-01-30T21:45:33;10.1;;;5.7;;
22308;SDS011;11322;50.858;-1.778;2024-01-30T21:50:33;9.95;;;4.65;;
22308;SDS011;11322;50.858;-1.778;2024-01-30T21:55:33;12.0;;;6.0;;
22308;SDS011;11322;50.858;-1.778;2024-01-30T22:00:33;11.55;;;5.8;;
22308;SDS011;11322;50.858;-1.778;2024-01-30T22:05:33;10.65;;;5.2;;
22308;SDS011;11322;50.858;-1.778;2024-01-30T22:10:33;9.25;;;5.1;;
22308;SDS011;11322;50.858;-1.778;2024-01-30T22:15:33;10.05;;;6.3;;
22308;SDS011;11322;50.858;-1.778;2024-01-30T22:20:38;22.25;;;8.8;;
22308;SDS011;11322;50.858;-1.778;2024-01-30T22:25:33;13.7;;;6.1;;
22308;SDS011;11322;50.858;-1.778;2024-01-30T22:30:33;9.7;;;5.95;;
22308;SDS011;11322;50.858;-1.778;2024-01-30T22:35:33;11.4;;;5.95;;
22308;SDS011;11322;50.858;-1.778;2024-01-30T22:40:33;14.3;;;6.45;;
22308;SDS011;11322;50.858;-1.778;2024-01-30T22:45:33;16.7;;;8.25;;
22308;SDS011;11322;50.858;-1.778;2024-01-30T22:50:33;11.65;;;5.9;;
22308;SDS011;11322;50.858;-1.778;2024-01-30T22:55:33;11.75;;;6.1;;
22308;SDS011;11322;50.858;-1.778;2024-01-30T23:00:33;15.35;;;6.6;;
22308;SDS011;11322;50.858;-1.778;2024-01-30T23:05:33;12.55;;;6.55;;
22308;SDS011;11322;50.858;-1.778;2024-01-30T23:10:33;14.35;;;6.4;;
22308;SDS011;11322;50.858;-1.778;2024-01-30T23:15:33;18.7;;;6.4;;
22308;SDS011;11322;50.858;-1.778;2024-01-30T23:20:33;10.75;;;4.25;;
22308;SDS011;11322;50.858;-1.778;2024-01-30T23:25:33;11.3;;;4.0;;
22308;SDS011;11322;50.858;-1.778;2024-01-30T23:30:33;7.35;;;3.35;;
22308;SDS011;11322;50.858;-1.778;2024-01-30T23:35:33;13.75;;;4.75;;
22308;SDS011;11322;50.858;-1.778;2024-01-30T23:40:33;8.3;;;3.6;;
22308;SDS011;11322;50.858;-1.778;2024-01-30T23:45:33;10.0;;;4.2;;
22308;SDS011;11322;50.858;-1.778;2024-01-30T23:50:33;7.9;;;3.5;;
22308;SDS011;11322;50.858;-1.778;2024-01-30T23:55:33;6.85;;;2.9;;
